createdAt,value
2018-04-02T00:02:27.012Z,2.98
2018-04-02T00:04:54.527Z,2.92
2018-04-02T00:07:22.045Z,2.90
2018-04-02T00:09:49.591Z,2.88
2018-04-02T00:12:17.096Z,2.93
2018-04-02T00:14:44.635Z,2.93
2018-04-02T00:17:12.168Z,2.93
2018-04-02T00:19:39.675Z,2.96
2018-04-02T00:22:07.189Z,2.93
2018-04-02T00:24:34.726Z,2.86
2018-04-02T00:27:02.262Z,2.81
2018-04-02T00:29:29.818Z,2.81
2018-04-02T00:31:57.546Z,2.81
2018-04-02T00:34:25.038Z,2.85
2018-04-02T00:36:52.563Z,2.82
2018-04-02T00:39:20.331Z,2.77
2018-04-02T00:41:47.854Z,2.80
2018-04-02T00:44:15.381Z,2.83
2018-04-02T00:46:42.909Z,2.79
2018-04-02T00:49:10.423Z,2.86
2018-04-02T00:51:37.928Z,2.77
2018-04-02T00:54:05.486Z,2.75
2018-04-02T00:56:33.013Z,2.71
2018-04-02T00:59:00.537Z,2.71
2018-04-02T01:01:28.091Z,2.65
2018-04-02T01:03:55.602Z,2.58
2018-04-02T01:06:23.105Z,2.50
2018-04-02T01:08:50.657Z,2.51
2018-04-02T01:11:18.413Z,2.50
2018-04-02T01:13:45.922Z,2.29
2018-04-02T01:16:13.468Z,2.37
2018-04-02T01:18:40.994Z,2.42
2018-04-02T01:21:08.557Z,2.58
2018-04-02T01:23:36.129Z,2.47
2018-04-02T01:26:04.102Z,2.47
2018-04-02T01:28:31.684Z,2.41
2018-04-02T01:30:59.220Z,2.39
2018-04-02T01:33:26.712Z,2.38
2018-04-02T01:35:54.214Z,2.38
2018-04-02T01:38:21.753Z,2.40
2018-04-02T01:40:49.256Z,2.33
2018-04-02T01:43:16.789Z,2.35
2018-04-02T01:45:45.209Z,2.39
2018-04-02T01:48:12.704Z,2.40
2018-04-02T01:50:40.204Z,2.30
2018-04-02T01:53:07.727Z,2.31
2018-04-02T01:55:35.528Z,2.31
2018-04-02T01:58:03.310Z,2.25
2018-04-02T02:00:31.924Z,2.35
2018-04-02T02:02:59.761Z,2.28
2018-04-02T02:05:27.613Z,2.29
2018-04-02T02:07:55.169Z,2.24
2018-04-02T02:10:22.673Z,2.23
2018-04-02T02:12:50.190Z,2.26
2018-04-02T02:15:17.958Z,2.05
2018-04-02T02:17:45.724Z,2.24
2018-04-02T02:20:13.221Z,2.26
2018-04-02T02:22:40.759Z,2.19
2018-04-02T02:25:08.252Z,2.18
2018-04-02T02:27:35.765Z,2.12
2018-04-02T02:30:03.300Z,2.06
2018-04-02T02:32:30.801Z,2.02
2018-04-02T02:34:58.378Z,2.09
2018-04-02T02:37:25.860Z,1.81
2018-04-02T02:39:53.382Z,1.92
2018-04-02T02:42:20.908Z,1.87
2018-04-02T02:44:48.697Z,1.87
2018-04-02T02:47:16.203Z,1.88
2018-04-02T02:49:43.720Z,1.85
2018-04-02T02:52:11.256Z,1.87
2018-04-02T02:54:38.759Z,1.88
2018-04-02T02:57:06.271Z,1.65
2018-04-02T02:59:33.795Z,1.48
2018-04-02T03:02:01.303Z,1.48
2018-04-02T03:04:28.808Z,1.41
2018-04-02T03:06:56.329Z,1.31
2018-04-02T03:09:24.087Z,1.33
2018-04-02T03:11:51.601Z,1.46
2018-04-02T03:14:19.152Z,1.49
2018-04-02T03:16:46.983Z,1.43
2018-04-02T03:19:14.535Z,1.44
2018-04-02T03:21:42.069Z,1.49
2018-04-02T03:24:09.569Z,1.28
2018-04-02T03:26:37.107Z,1.38
2018-04-02T03:29:04.671Z,1.23
2018-04-02T03:31:32.241Z,1.32
2018-04-02T03:33:59.747Z,1.39
2018-04-02T03:36:27.275Z,1.28
2018-04-02T03:38:54.793Z,1.20
2018-04-02T03:41:22.314Z,1.26
2018-04-02T03:43:49.849Z,1.23
2018-04-02T03:46:17.360Z,1.26
2018-04-02T03:48:45.164Z,1.30
2018-04-02T03:51:12.714Z,1.19
2018-04-02T03:53:40.216Z,1.14
2018-04-02T03:56:07.810Z,1.06
2018-04-02T03:58:35.362Z,1.19
2018-04-02T04:01:02.871Z,1.14
2018-04-02T04:03:30.534Z,1.19
2018-04-02T04:05:58.088Z,1.11
2018-04-02T04:08:25.593Z,1.06
2018-04-02T04:10:53.202Z,1.05
2018-04-02T04:13:20.798Z,1.01
2018-04-02T04:15:48.635Z,1.09
2018-04-02T04:18:16.155Z,1.01
2018-04-02T04:20:43.724Z,1.04
2018-04-02T04:23:11.536Z,1.12
2018-04-02T04:25:39.055Z,1.16
2018-04-02T04:28:06.583Z,1.13
2018-04-02T04:30:34.092Z,1.16
2018-04-02T04:33:02.027Z,1.20
2018-04-02T04:35:29.618Z,1.07
2018-04-02T04:37:57.118Z,1.12
2018-04-02T04:40:24.760Z,1.17
2018-04-02T04:42:52.308Z,1.18
2018-04-02T04:45:19.832Z,1.21
2018-04-02T04:47:47.385Z,1.19
2018-04-02T04:50:14.975Z,1.20
2018-04-02T04:52:42.476Z,1.27
2018-04-02T04:55:09.995Z,1.39
2018-04-02T04:57:37.557Z,1.38
2018-04-02T05:00:05.359Z,1.45
2018-04-02T05:02:32.871Z,1.38
2018-04-02T05:05:00.389Z,1.42
2018-04-02T05:07:27.927Z,1.36
2018-04-02T05:09:55.456Z,1.26
2018-04-02T05:12:22.984Z,1.22
2018-04-02T05:14:50.481Z,1.35
2018-04-02T05:17:18.007Z,1.30
2018-04-02T05:19:45.831Z,1.39
2018-04-02T05:22:13.370Z,1.43
2018-04-02T05:24:40.895Z,1.43
2018-04-02T05:27:08.395Z,1.49
2018-04-02T05:29:36.026Z,1.26
2018-04-02T05:32:03.516Z,1.43
2018-04-02T05:34:31.049Z,1.47
2018-04-02T05:36:58.616Z,1.63
2018-04-02T05:39:26.134Z,1.84
2018-04-02T05:41:53.725Z,1.82
2018-04-02T05:44:21.544Z,1.82
2018-04-02T05:46:49.081Z,1.82
2018-04-02T05:49:16.617Z,1.96
2018-04-02T05:51:44.141Z,1.63
2018-04-02T05:54:11.664Z,1.83
2018-04-02T05:56:39.198Z,1.89
2018-04-02T05:59:06.745Z,1.86
2018-04-02T06:01:34.243Z,2.01
2018-04-02T06:04:02.037Z,2.16
2018-04-02T06:06:29.628Z,2.06
2018-04-02T06:08:57.138Z,2.29
2018-04-02T06:11:24.687Z,2.39
2018-04-02T06:13:52.574Z,2.39
2018-04-02T06:16:20.246Z,2.43
2018-04-02T06:18:47.778Z,2.53
2018-04-02T06:21:15.315Z,2.64
2018-04-02T06:23:42.905Z,2.33
2018-04-02T06:26:11.020Z,2.31
2018-04-02T06:28:38.533Z,2.42
2018-04-02T06:31:06.105Z,2.65
2018-04-02T06:33:33.681Z,2.78
2018-04-02T06:36:01.320Z,2.78
2018-04-02T06:38:28.874Z,2.78
2018-04-02T06:40:56.410Z,2.90
2018-04-02T06:43:23.916Z,3.00
2018-04-02T06:45:51.413Z,2.95
2018-04-02T06:48:18.970Z,2.70
2018-04-02T06:50:47.418Z,2.60
2018-04-02T06:53:14.927Z,2.85
2018-04-02T06:55:42.470Z,3.06
2018-04-02T06:58:09.967Z,2.96
2018-04-02T07:00:37.487Z,3.26
2018-04-02T07:03:05.324Z,3.65
2018-04-02T07:05:32.907Z,4.00
2018-04-02T07:08:00.450Z,4.18
2018-04-02T07:10:27.969Z,4.50
2018-04-02T07:12:55.525Z,4.75
2018-04-02T07:15:23.054Z,5.38
2018-04-02T07:17:50.891Z,5.81
2018-04-02T07:20:18.426Z,6.17
2018-04-02T07:22:46.596Z,6.30
2018-04-02T07:25:14.106Z,6.70
2018-04-02T07:27:41.703Z,5.98
2018-04-02T07:30:09.302Z,6.30
2018-04-02T07:32:36.811Z,6.31
2018-04-02T07:35:04.329Z,7.16
2018-04-02T07:37:31.827Z,7.33
2018-04-02T07:39:59.356Z,7.58
2018-04-02T07:42:26.865Z,7.75
2018-04-02T07:44:54.671Z,7.73
2018-04-02T07:47:22.214Z,8.11
2018-04-02T07:49:49.735Z,7.87
2018-04-02T07:52:17.336Z,8.16
2018-04-02T07:54:44.860Z,8.05
2018-04-02T07:57:12.414Z,8.17
2018-04-02T07:59:40.245Z,8.33
2018-04-02T08:02:07.822Z,8.49
2018-04-02T08:04:35.338Z,8.48
2018-04-02T08:07:02.871Z,8.55
2018-04-02T08:09:30.512Z,7.57
2018-04-02T08:11:58.048Z,7.05
2018-04-02T08:14:25.622Z,7.60
2018-04-02T08:16:53.485Z,7.87
2018-04-02T08:19:21.010Z,7.11
2018-04-02T08:21:48.593Z,7.91
2018-04-02T08:24:16.095Z,8.65
2018-04-02T08:26:43.925Z,8.64
2018-04-02T08:29:11.474Z,8.74
2018-04-02T08:31:39.014Z,9.06
2018-04-02T08:34:06.543Z,8.91
2018-04-02T08:36:34.069Z,8.73
2018-04-02T08:39:01.701Z,8.98
2018-04-02T08:41:29.490Z,9.40
2018-04-02T08:43:57.055Z,9.84
2018-04-02T08:46:26.330Z,9.10
2018-04-02T08:48:53.869Z,9.02
2018-04-02T08:51:21.403Z,9.79
2018-04-02T08:53:48.929Z,10.46
2018-04-02T08:56:16.482Z,11.21
2018-04-02T08:58:44.007Z,12.19
2018-04-02T09:01:11.668Z,12.57
2018-04-02T09:03:39.228Z,11.70
2018-04-02T09:06:06.729Z,11.15
2018-04-02T09:08:34.329Z,10.13
2018-04-02T09:11:02.178Z,10.90
2018-04-02T09:13:29.748Z,10.13
2018-04-02T09:15:57.278Z,10.53
2018-04-02T09:18:25.170Z,10.19
2018-04-02T09:20:52.727Z,10.94
2018-04-02T09:23:20.261Z,11.79
2018-04-02T09:25:47.782Z,12.31
2018-04-02T09:28:15.373Z,11.86
2018-04-02T09:30:43.006Z,12.26
2018-04-02T09:33:10.715Z,12.12
2018-04-02T09:35:38.642Z,12.58
2018-04-02T09:38:06.328Z,12.16
2018-04-02T09:40:33.964Z,11.46
2018-04-02T09:43:01.791Z,11.30
2018-04-02T09:45:29.322Z,11.61
2018-04-02T09:47:57.147Z,11.43
2018-04-02T09:50:24.663Z,11.60
2018-04-02T09:52:52.206Z,12.04
2018-04-02T09:55:20.507Z,12.09
2018-04-02T09:57:48.087Z,11.76
2018-04-02T10:00:15.667Z,11.88
2018-04-02T10:02:45.993Z,12.01
2018-04-02T10:05:13.644Z,12.11
2018-04-02T10:07:41.154Z,12.09
2018-04-02T10:10:08.994Z,10.90
2018-04-02T10:12:36.926Z,10.63
2018-04-02T10:15:04.435Z,10.08
2018-04-02T10:17:31.998Z,10.25
2018-04-02T10:19:59.533Z,10.43
2018-04-02T10:22:27.108Z,10.61
2018-04-02T10:24:54.658Z,10.30
2018-04-02T10:27:22.259Z,10.66
2018-04-02T10:29:49.829Z,11.27
2018-04-02T10:32:17.443Z,10.79
2018-04-02T10:34:44.989Z,10.87
2018-04-02T10:37:21.026Z,11.90
2018-04-02T10:39:49.211Z,12.34
2018-04-02T10:42:16.950Z,13.02
2018-04-02T10:44:44.516Z,13.93
2018-04-02T10:47:12.033Z,13.33
2018-04-02T10:49:40.596Z,14.54
2018-04-02T10:52:12.638Z,15.07
2018-04-02T10:54:45.997Z,15.38
2018-04-02T10:57:17.271Z,16.07
2018-04-02T10:59:46.047Z,16.76
2018-04-02T11:02:16.234Z,17.01
2018-04-02T11:04:44.305Z,18.06
2018-04-02T11:07:11.834Z,18.79
2018-04-02T11:09:41.515Z,19.78
2018-04-02T11:12:09.412Z,19.00
2018-04-02T11:14:39.005Z,19.04
2018-04-02T11:17:12.848Z,18.61
2018-04-02T11:19:40.381Z,17.41
2018-04-02T11:22:07.913Z,18.82
2018-04-02T11:24:39.771Z,19.61
2018-04-02T11:27:07.299Z,20.35
2018-04-02T11:29:34.830Z,20.21
2018-04-02T11:32:02.404Z,18.01
2018-04-02T11:34:30.148Z,18.17
2018-04-02T11:36:57.706Z,18.17
2018-04-02T11:39:25.325Z,20.29
2018-04-02T11:41:52.903Z,17.86
2018-04-02T11:44:20.406Z,18.05
2018-04-02T11:46:47.938Z,17.64
2018-04-02T11:49:15.459Z,18.96
2018-04-02T11:51:42.995Z,19.18
2018-04-02T11:54:10.553Z,21.43
2018-04-02T11:56:38.107Z,23.54
2018-04-02T11:59:05.675Z,22.08
2018-04-02T12:01:33.274Z,22.81
2018-04-02T12:04:00.817Z,23.07
2018-04-02T12:06:28.472Z,24.60
2018-04-02T12:08:56.090Z,25.46
2018-04-02T12:11:23.653Z,25.33
2018-04-02T12:13:51.177Z,25.60
2018-04-02T12:16:18.772Z,27.06
2018-04-02T12:18:46.296Z,26.62
2018-04-02T12:21:13.856Z,26.63
2018-04-02T12:23:41.416Z,27.48
2018-04-02T12:26:08.932Z,29.34
2018-04-02T12:28:36.492Z,29.18
2018-04-02T12:31:04.100Z,29.77
2018-04-02T12:33:31.671Z,30.34
2018-04-02T12:35:59.187Z,30.66
2018-04-02T12:38:26.697Z,25.17
2018-04-02T12:40:54.258Z,26.02
2018-04-02T12:43:21.826Z,27.98
2018-04-02T12:45:49.387Z,26.15
2018-04-02T12:48:16.944Z,26.26
2018-04-02T12:50:44.498Z,25.81
2018-04-02T12:53:12.003Z,26.91
2018-04-02T12:55:39.856Z,27.39
2018-04-02T12:58:07.414Z,23.44
2018-04-02T13:00:34.944Z,22.40
2018-04-02T13:03:02.508Z,22.88
2018-04-02T13:05:30.806Z,22.84
2018-04-02T13:07:58.342Z,22.37
2018-04-02T13:10:25.872Z,22.49
2018-04-02T13:12:53.407Z,22.11
2018-04-02T13:15:20.968Z,21.90
2018-04-02T13:17:48.515Z,21.44
2018-04-02T13:20:18.329Z,20.75
2018-04-02T13:22:45.850Z,21.08
2018-04-02T13:25:13.381Z,20.50
2018-04-02T13:27:40.992Z,20.20
2018-04-02T13:30:08.531Z,20.30
2018-04-02T13:32:36.341Z,20.62
2018-04-02T13:35:04.009Z,21.62
2018-04-02T13:37:31.543Z,21.56
2018-04-02T13:39:59.151Z,21.16
2018-04-02T13:42:26.718Z,21.52
2018-04-02T13:44:54.299Z,21.43
2018-04-02T13:47:21.900Z,21.35
2018-04-02T13:49:49.525Z,18.97
2018-04-02T13:52:17.951Z,17.49
2018-04-02T13:54:45.524Z,17.57
2018-04-02T13:57:13.120Z,18.76
2018-04-02T13:59:40.651Z,19.76
2018-04-02T14:02:08.244Z,20.39
2018-04-02T14:04:36.014Z,20.46
2018-04-02T14:07:03.787Z,20.38
2018-04-02T14:09:31.371Z,20.96
2018-04-02T14:11:59.118Z,20.31
2018-04-02T14:14:26.926Z,19.83
2018-04-02T14:16:54.452Z,19.41
2018-04-02T14:19:21.981Z,19.88
2018-04-02T14:21:49.533Z,20.83
2018-04-02T14:24:17.403Z,18.19
2018-04-02T14:26:45.034Z,16.58
2018-04-02T14:29:22.357Z,17.16
2018-04-02T14:31:49.967Z,18.03
2018-04-02T14:34:17.529Z,20.16
2018-04-02T14:36:45.051Z,21.21
2018-04-02T14:39:12.770Z,20.62
2018-04-02T14:41:40.400Z,19.16
2018-04-02T14:44:08.425Z,19.14
2018-04-02T14:46:36.092Z,17.35
2018-04-02T14:49:03.595Z,15.75
2018-04-02T14:51:31.136Z,16.61
2018-04-02T14:53:58.770Z,16.38
2018-04-02T14:56:26.295Z,17.15
2018-04-02T14:58:53.843Z,18.18
2018-04-02T15:01:21.368Z,18.63
2018-04-02T15:03:48.996Z,18.64
2018-04-02T15:06:16.549Z,19.40
2018-04-02T15:08:44.446Z,18.53
2018-04-02T15:11:12.004Z,18.04
2018-04-02T15:13:39.549Z,18.06
2018-04-02T15:16:07.949Z,18.33
2018-04-02T15:18:35.487Z,18.23
2018-04-02T15:21:03.062Z,17.59
2018-04-02T15:23:30.615Z,17.06
2018-04-02T15:25:58.278Z,16.29
2018-04-02T15:28:25.801Z,15.73
2018-04-02T15:30:53.452Z,15.16
2018-04-02T15:33:21.872Z,14.60
2018-04-02T15:35:49.443Z,14.25
2018-04-02T15:38:17.933Z,14.03
2018-04-02T15:40:45.431Z,13.38
2018-04-02T15:43:13.353Z,13.02
2018-04-02T15:45:41.213Z,12.74
2018-04-02T15:48:08.770Z,12.67
2018-04-02T15:50:36.551Z,12.63
2018-04-02T15:53:04.106Z,12.56
2018-04-02T15:55:31.656Z,12.53
2018-04-02T15:58:01.006Z,12.45
2018-04-02T16:00:28.707Z,12.38
2018-04-02T16:02:56.298Z,12.23
2018-04-02T16:05:24.054Z,12.15
2018-04-02T16:07:51.720Z,12.10
2018-04-02T16:10:19.483Z,12.05
2018-04-02T16:12:47.119Z,11.85
2018-04-02T16:15:14.645Z,11.76
2018-04-02T16:17:42.252Z,11.68
2018-04-02T16:20:09.784Z,11.73
2018-04-02T16:22:37.299Z,11.78
2018-04-02T16:25:04.950Z,11.72
2018-04-02T16:27:32.443Z,11.72
2018-04-02T16:29:59.946Z,11.68
2018-04-02T16:32:27.538Z,11.66
2018-04-02T16:34:55.072Z,11.65
2018-04-02T16:37:22.655Z,11.63
2018-04-02T16:39:50.190Z,11.57
2018-04-02T16:42:17.749Z,11.53
2018-04-02T16:44:45.312Z,11.46
2018-04-02T16:47:12.841Z,11.45
2018-04-02T16:49:40.399Z,11.44
2018-04-02T16:52:07.932Z,11.34
2018-04-02T16:54:35.474Z,11.32
2018-04-02T16:57:03.064Z,11.29
2018-04-02T16:59:30.993Z,11.29
2018-04-02T17:01:58.555Z,11.19
2018-04-02T17:04:26.272Z,11.11
2018-04-02T17:06:55.149Z,11.08
2018-04-02T17:09:22.709Z,11.03
2018-04-02T17:11:50.275Z,11.02
2018-04-02T17:14:18.105Z,11.00
2018-04-02T17:16:45.640Z,10.99
2018-04-02T17:19:13.204Z,10.97
2018-04-02T17:21:41.018Z,11.00
2018-04-02T17:24:08.616Z,10.95
2018-04-02T17:26:36.283Z,10.91
2018-04-02T17:29:03.951Z,10.89
2018-04-02T17:31:31.530Z,10.85
2018-04-02T17:33:59.146Z,10.61
2018-04-02T17:36:26.694Z,10.66
2018-04-02T17:38:54.530Z,10.68
2018-04-02T17:41:22.398Z,10.60
2018-04-02T17:43:50.161Z,10.42
2018-04-02T17:46:17.782Z,10.42
2018-04-02T17:48:45.298Z,10.49
2018-04-02T17:51:13.049Z,10.42
2018-04-02T17:53:41.021Z,10.48
2018-04-02T17:56:08.639Z,10.47
2018-04-02T17:58:36.162Z,10.44
2018-04-02T18:01:03.752Z,10.40
2018-04-02T18:03:31.282Z,10.46
2018-04-02T18:05:58.949Z,10.45
2018-04-02T18:08:26.954Z,10.47
2018-04-02T18:10:54.535Z,10.44
2018-04-02T18:13:22.068Z,10.46
2018-04-02T18:15:49.586Z,10.45
2018-04-02T18:18:18.278Z,10.40
2018-04-02T18:20:46.303Z,10.37
2018-04-02T18:23:14.105Z,10.34
2018-04-02T18:25:41.655Z,10.29
2018-04-02T18:28:09.339Z,10.29
2018-04-02T18:30:36.904Z,10.31
2018-04-02T18:33:04.504Z,10.33
2018-04-02T18:35:32.073Z,10.29
2018-04-02T18:37:59.615Z,10.29
2018-04-02T18:40:27.142Z,10.31
2018-04-02T18:42:54.740Z,10.23
2018-04-02T18:45:22.316Z,10.20
2018-04-02T18:47:49.887Z,10.15
2018-04-02T18:50:17.448Z,10.17
2018-04-02T18:52:44.989Z,10.17
2018-04-02T18:55:13.666Z,10.14
2018-04-02T18:57:41.213Z,10.13
2018-04-02T19:02:40.873Z,10.07
2018-04-02T19:05:09.092Z,10.06
2018-04-02T19:07:37.057Z,10.03
2018-04-02T19:13:07.104Z,9.97
2018-04-02T19:15:34.658Z,9.98
2018-04-02T19:18:02.181Z,9.96
2018-04-02T19:20:30.050Z,9.92
2018-04-02T19:23:03.952Z,9.92
2018-04-02T19:25:32.924Z,9.89
2018-04-02T19:28:00.477Z,9.84
2018-04-02T19:30:29.141Z,9.85
2018-04-02T19:32:58.839Z,9.80
2018-04-02T19:35:26.546Z,9.79
2018-04-02T19:37:54.608Z,9.78
2018-04-02T19:40:27.211Z,9.82
2018-04-02T19:45:43.189Z,9.66
2018-04-02T19:48:10.976Z,9.71
2018-04-02T19:50:38.622Z,9.64
2018-04-02T19:53:06.173Z,9.57
2018-04-02T19:55:33.682Z,9.56
2018-04-02T19:58:02.648Z,9.55
2018-04-02T20:00:30.397Z,9.56
2018-04-02T20:02:57.936Z,9.53
2018-04-02T20:05:25.459Z,9.49
2018-04-02T20:07:53.603Z,9.57
2018-04-02T20:10:21.225Z,9.59
2018-04-02T20:12:48.908Z,9.51
2018-04-02T20:15:16.447Z,9.50
2018-04-02T20:17:44.481Z,9.50
2018-04-02T20:20:12.021Z,9.54
2018-04-02T20:22:39.539Z,9.49
2018-04-02T20:25:07.630Z,9.48
2018-04-02T20:27:39.781Z,9.44
2018-04-02T20:30:09.769Z,9.39
2018-04-02T20:32:40.669Z,9.38
2018-04-02T20:35:08.707Z,9.38
2018-04-02T20:37:40.604Z,9.39
2018-04-02T20:40:10.420Z,9.42
2018-04-02T20:42:37.964Z,9.47
2018-04-02T20:45:05.723Z,9.39
2018-04-02T20:47:33.280Z,9.38
2018-04-02T20:50:00.849Z,9.36
2018-04-02T20:52:28.443Z,9.38
2018-04-02T20:54:56.269Z,9.39
2018-04-02T20:57:23.952Z,9.37
2018-04-02T20:59:51.547Z,9.35
2018-04-02T21:02:19.324Z,9.29
2018-04-02T21:04:46.921Z,9.29
2018-04-02T21:07:14.653Z,9.23
2018-04-02T21:09:42.173Z,9.20
2018-04-02T21:12:09.723Z,9.19
2018-04-02T21:14:37.271Z,9.13
2018-04-02T21:17:04.816Z,9.11
2018-04-02T21:19:32.352Z,9.05
2018-04-02T21:21:59.918Z,9.06
2018-04-02T21:24:27.538Z,9.02
2018-04-02T21:26:55.376Z,8.99
2018-04-02T21:29:23.134Z,9.00
2018-04-02T21:31:50.733Z,8.94
2018-04-02T21:34:18.265Z,8.93
2018-04-02T21:36:46.322Z,8.94
2018-04-02T21:39:13.894Z,8.91
2018-04-02T21:41:41.489Z,8.86
2018-04-02T21:44:09.139Z,8.86
2018-04-02T21:46:36.807Z,8.83
2018-04-02T21:49:06.543Z,8.80
2018-04-02T21:51:34.077Z,8.81
2018-04-02T21:54:01.799Z,8.83
2018-04-02T21:56:29.342Z,8.88
2018-04-02T21:58:56.858Z,8.85
2018-04-02T22:01:24.707Z,8.82
2018-04-02T22:03:52.624Z,8.88
2018-04-02T22:06:31.951Z,8.79
2018-04-02T22:08:59.466Z,8.79
2018-04-02T22:11:27.009Z,8.76
2018-04-02T22:13:54.560Z,8.76
2018-04-02T22:16:22.059Z,8.75
2018-04-02T22:18:49.822Z,8.79
2018-04-02T22:21:17.376Z,8.82
2018-04-02T22:23:44.870Z,8.79
2018-04-02T22:26:12.707Z,8.79
2018-04-02T22:28:40.265Z,8.79
2018-04-02T22:31:07.814Z,8.76
2018-04-02T22:33:35.363Z,8.75
2018-04-02T22:36:02.910Z,8.74
2018-04-02T22:38:30.526Z,8.74
2018-04-02T22:40:58.062Z,8.66
2018-04-02T22:43:26.463Z,8.66
2018-04-02T22:45:53.993Z,8.63
2018-04-02T22:48:21.533Z,8.63
2018-04-02T22:50:49.255Z,8.58
2018-04-02T22:53:16.859Z,8.58
2018-04-02T22:55:44.414Z,8.57
2018-04-02T22:58:12.057Z,8.55
2018-04-02T23:00:40.195Z,8.59
2018-04-02T23:03:08.066Z,8.54
2018-04-02T23:05:35.650Z,8.49
2018-04-02T23:08:03.175Z,8.51
2018-04-02T23:10:30.690Z,8.47
2018-04-02T23:12:58.225Z,8.46
2018-04-02T23:15:25.827Z,8.34
2018-04-02T23:17:53.343Z,8.32
2018-04-02T23:20:20.876Z,8.35
2018-04-02T23:22:52.275Z,8.32
2018-04-02T23:25:19.815Z,8.34
2018-04-02T23:27:47.360Z,8.35
2018-04-02T23:30:14.872Z,8.29
2018-04-02T23:32:42.372Z,8.30
2018-04-02T23:35:09.928Z,8.32
2018-04-02T23:37:37.448Z,8.32
2018-04-02T23:40:04.964Z,8.32
2018-04-02T23:42:32.478Z,8.35
2018-04-02T23:45:00.287Z,8.24
2018-04-02T23:47:27.807Z,8.25
2018-04-02T23:49:55.409Z,8.36
2018-04-02T23:52:22.933Z,8.31
2018-04-02T23:54:50.465Z,8.40
2018-04-02T23:57:18.029Z,8.31
2018-04-02T23:59:45.542Z,8.34
